Time;durP1;ratioP1;P1;durP2;ratioP2;P2;SDS_P1;SDS_P2;PMS_P1;PMS_P2;Temp;Humidity;BMP_temperature;BMP_pressure;BME280_temperature;BME280_humidity;BME280_pressure;Samples;Min_cycle;Max_cycle;Signal;HPM_P1;HPM_P2
2023/06/26 00:01:33;;;;;;;15.63;11.18;;;;;;;26.73;43.86;101138.09;4971165;28;122915;-76
2023/06/26 00:04:00;;;;;;;12.40;10.23;;;;;;;26.70;44.05;101133.88;4988732;28;119218;-77
2023/06/26 00:06:28;;;;;;;12.70;10.48;;;;;;;26.67;43.92;101138.78;4971105;28;118230;-76
2023/06/26 00:08:56;;;;;;;12.52;10.30;;;;;;;26.64;43.97;101144.59;4971434;28;124487;-76
2023/06/26 00:11:24;;;;;;;13.68;10.25;;;;;;;26.61;44.22;101135.72;4989066;28;123709;-76
2023/06/26 00:13:51;;;;;;;12.00;9.65;;;;;;;26.60;44.05;101131.31;4970476;28;117996;-76
2023/06/26 00:16:18;;;;;;;10.65;9.50;;;;;;;26.60;44.05;101128.59;4989346;28;119284;-77
2023/06/26 00:18:45;;;;;;;11.88;9.82;;;;;;;26.59;44.30;101126.88;4988414;28;123903;-76
2023/06/26 00:21:13;;;;;;;12.10;9.32;;;;;;;26.57;44.05;101123.47;4970763;28;124144;-76
2023/06/26 00:23:40;;;;;;;11.93;9.75;;;;;;;26.57;44.08;101128.88;4971033;28;118550;-77
2023/06/26 00:26:09;;;;;;;12.00;9.52;;;;;;;26.56;44.40;101116.34;4984410;28;119148;-76
2023/06/26 00:28:36;;;;;;;11.20;9.38;;;;;;;26.55;44.46;101120.06;4970783;28;124507;-76
2023/06/26 00:31:04;;;;;;;10.93;9.13;;;;;;;26.53;44.52;101116.66;4988559;28;124472;-76
2023/06/26 00:33:31;;;;;;;13.70;10.63;;;;;;;26.52;44.32;101114.97;4969744;28;118808;-76
2023/06/26 00:35:59;;;;;;;11.57;9.55;;;;;;;26.51;44.54;101115.97;4970841;28;118072;-76
2023/06/26 00:38:26;;;;;;;10.40;8.88;;;;;;;26.48;44.46;101119.03;4969891;28;123960;-76
2023/06/26 00:40:54;;;;;;;11.02;9.10;;;;;;;26.47;44.43;101122.78;4988420;28;124564;-77
2023/06/26 00:43:22;;;;;;;10.30;7.82;;;;;;;26.42;44.27;101125.13;4970419;28;119560;-76
2023/06/26 00:45:49;;;;;;;10.43;7.57;;;;;;;26.40;44.66;101119.00;4989682;28;118980;-76
2023/06/26 00:48:18;;;;;;;9.98;8.45;;;;;;;26.38;44.41;101118.34;4970099;28;124499;-76
2023/06/26 00:50:45;;;;;;;10.75;8.70;;;;;;;26.36;44.48;101120.38;4954496;28;123837;-76
2023/06/26 00:53:12;;;;;;;10.70;8.07;;;;;;;26.34;44.66;101114.25;4969360;28;119083;-76
2023/06/26 00:55:39;;;;;;;10.50;8.60;;;;;;;26.33;44.60;101105.25;4969636;28;118236;-77
2023/06/26 00:58:09;;;;;;;10.52;8.77;;;;;;;26.33;44.80;101112.53;4965853;28;123849;-76
2023/06/26 01:00:36;;;;;;;10.35;8.95;;;;;;;26.32;44.92;101113.56;4990917;28;123176;-76
2023/06/26 01:03:04;;;;;;;11.90;9.65;;;;;;;26.31;44.80;101111.84;4970479;28;118488;-76
2023/06/26 01:05:31;;;;;;;10.73;9.55;;;;;;;26.30;45.25;101115.59;4988554;28;119572;-76
2023/06/26 01:07:59;;;;;;;11.52;9.70;;;;;;;26.27;45.25;101113.22;4970407;28;123554;-77
2023/06/26 01:10:27;;;;;;;12.27;10.30;;;;;;;26.23;45.10;101116.25;4987882;28;124060;-77
2023/06/26 01:12:55;;;;;;;13.02;10.45;;;;;;;26.22;45.11;101114.56;4965301;28;119796;-77
2023/06/26 01:15:22;;;;;;;12.23;9.90;;;;;;;26.21;45.38;101112.84;4987692;28;120833;-76
2023/06/26 01:17:51;;;;;;;12.77;9.85;;;;;;;26.19;45.38;101109.44;4969711;28;123578;-76
2023/06/26 01:20:19;;;;;;;12.20;9.68;;;;;;;26.17;45.33;101122.34;4987727;28;123924;-76
2023/06/26 01:23:07;;;;;;;11.85;9.80;;;;;;;26.13;45.84;101120.97;4958554;28;119822;-76
2023/06/26 01:26:02;;;;;;;12.75;10.10;;;;;;;26.11;45.52;101122.16;4966911;28;119718;-76
2023/06/26 01:28:31;;;;;;;12.13;9.77;;;;;;;26.07;45.47;101120.78;4950560;28;123721;-77
2023/06/26 01:30:59;;;;;;;11.90;9.95;;;;;;;26.03;45.71;101126.53;4987728;28;124407;-77
2023/06/26 01:33:26;;;;;;;11.50;10.30;;;;;;;26.01;45.64;101130.41;4987369;28;119376;-77
2023/06/26 01:35:54;;;;;;;12.93;10.27;;;;;;;25.99;46.19;101129.75;4987889;28;119663;-76
2023/06/26 01:38:25;;;;;;;14.73;10.55;;;;;;;25.96;46.12;101140.94;4952971;28;123340;-77
2023/06/26 01:40:53;;;;;;;12.15;10.57;;;;;;;25.94;46.13;101137.53;4969621;28;123730;-77
2023/06/26 01:43:29;;;;;;;12.40;10.18;;;;;;;25.91;46.11;101132.41;4987652;28;120056;-76
2023/06/26 01:46:05;;;;;;;10.38;8.88;;;;;;;25.87;46.11;101142.72;4969865;28;118829;-77
2023/06/26 01:48:46;;;;;;;11.27;7.93;;;;;;;25.81;45.98;101152.34;4969519;28;123190;-77
2023/06/26 01:51:17;;;;;;;9.82;7.30;;;;;;;25.78;45.84;101154.53;4969233;28;123346;-76
2023/06/26 01:53:49;;;;;;;8.90;7.20;;;;;;;25.73;45.76;101160.47;4969403;28;119108;-77
2023/06/26 01:56:18;;;;;;;8.95;6.38;;;;;;;25.70;45.37;101152.63;4969908;28;118115;-77
2023/06/26 01:58:47;;;;;;;10.15;7.28;;;;;;;25.67;45.61;101155.66;4969195;28;122241;-77
2023/06/26 02:01:15;;;;;;;7.53;6.35;;;;;;;25.66;45.36;101155.84;4980782;28;123320;-77
2023/06/26 02:03:42;;;;;;;7.80;6.40;;;;;;;25.65;45.49;101165.81;4983822;28;120863;-77
2023/06/26 02:06:09;;;;;;;9.35;6.07;;;;;;;25.64;45.50;101170.41;4953471;28;119773;-76
2023/06/26 02:08:37;;;;;;;8.35;5.90;;;;;;;25.63;45.45;101173.28;4953036;28;122970;-77
2023/06/26 02:11:04;;;;;;;6.95;5.80;;;;;;;25.60;45.18;101176.31;4969166;28;124299;-76
2023/06/26 02:13:32;;;;;;;7.78;5.60;;;;;;;25.56;45.24;101174.91;4978482;28;118976;-77
2023/06/26 02:15:59;;;;;;;7.07;5.22;;;;;;;25.53;45.27;101177.97;4970020;28;118974;-76
2023/06/26 02:18:26;;;;;;;7.30;4.63;;;;;;;25.50;45.04;101175.56;4968828;28;123127;-77
2023/06/26 02:20:53;;;;;;;7.10;4.40;;;;;;;25.47;44.87;101176.72;4985609;28;123918;-76
2023/06/26 02:23:21;;;;;;;9.05;4.25;;;;;;;25.44;44.71;101179.75;4960762;28;118807;-77
2023/06/26 02:25:48;;;;;;;7.55;4.40;;;;;;;25.40;44.91;101172.94;4985507;28;118373;-76
2023/06/26 02:28:15;;;;;;;6.63;4.20;;;;;;;25.36;44.61;101172.41;4986600;28;124726;-76
2023/06/26 02:30:43;;;;;;;5.97;4.22;;;;;;;25.31;44.63;101180.16;4968307;28;123698;-76
2023/06/26 02:33:10;;;;;;;5.47;3.75;;;;;;;25.27;44.47;101178.78;4987103;28;120036;-76
2023/06/26 02:35:37;;;;;;;5.32;3.72;;;;;;;25.23;44.82;101180.09;4986183;28;118489;-76
2023/06/26 02:38:04;;;;;;;7.40;3.70;;;;;;;25.20;44.81;101183.09;4987043;28;123892;-76
2023/06/26 02:40:33;;;;;;;6.38;4.15;;;;;;;25.16;44.80;101181.69;4969654;28;123439;-76
2023/06/26 02:43:01;;;;;;;6.57;3.85;;;;;;;25.12;44.90;101174.91;4987368;28;119652;-76
2023/06/26 02:45:28;;;;;;;7.53;4.10;;;;;;;25.08;45.05;101176.22;4953791;28;118640;-76
2023/06/26 02:47:56;;;;;;;5.90;3.85;;;;;;;25.04;45.18;101179.22;4969020;28;123527;-76
2023/06/26 02:50:23;;;;;;;5.88;4.00;;;;;;;25.02;45.30;101183.97;4987548;28;124669;-76
2023/06/26 02:53:03;;;;;;;6.57;3.88;;;;;;;24.98;45.15;101185.28;4974911;28;119974;-76
2023/06/26 02:55:32;;;;;;;6.70;3.90;;;;;;;24.95;45.24;101184.72;4982940;28;119382;-76
2023/06/26 02:57:59;;;;;;;6.28;3.45;;;;;;;24.90;45.29;101192.47;4952432;28;123912;-76
2023/06/26 03:00:29;;;;;;;5.93;3.67;;;;;;;24.87;45.66;101204.47;4950843;28;123479;-76
2023/06/26 03:02:58;;;;;;;9.40;4.03;;;;;;;24.83;45.72;101208.50;4968477;28;120399;-76
2023/06/26 03:05:25;;;;;;;6.78;3.92;;;;;;;24.80;45.74;101211.50;4955575;28;118470;-77
2023/06/26 03:07:53;;;;;;;9.68;3.95;;;;;;;24.77;45.91;101209.09;4976491;28;124204;-76
2023/06/26 03:10:20;;;;;;;6.47;3.75;;;;;;;24.72;45.96;101212.28;4967579;28;123568;-76
2023/06/26 03:12:49;;;;;;;8.35;4.05;;;;;;;24.68;45.87;101222.56;4968882;28;97311;-76
2023/06/26 03:15:19;;;;;;;8.45;4.10;;;;;;;24.66;46.02;101215.59;4951215;28;118898;-76
2023/06/26 03:17:46;;;;;;;7.68;3.90;;;;;;;24.62;46.15;101220.47;4971571;28;124282;-76
2023/06/26 03:20:21;;;;;;;8.55;4.13;;;;;;;24.60;46.33;101214.34;4974323;28;123490;-76
2023/06/26 03:22:52;;;;;;;8.35;3.92;;;;;;;24.60;46.50;101218.91;4974156;28;118406;-76
2023/06/26 03:25:20;;;;;;;9.20;4.13;;;;;;;24.58;46.69;101216.38;4974189;28;118341;-76
2023/06/26 03:27:50;;;;;;;7.30;3.90;;;;;;;24.58;46.83;101216.38;4973589;28;125430;-76
2023/06/26 03:30:18;;;;;;;8.18;3.85;;;;;;;24.56;47.00;101218.34;4967260;28;123404;-76
2023/06/26 03:32:49;;;;;;;8.40;4.22;;;;;;;24.55;46.83;101227.50;4974360;28;119620;-76
2023/06/26 03:35:17;;;;;;;7.75;4.97;;;;;;;24.55;47.10;101222.06;4975323;28;118456;-76
2023/06/26 03:37:48;;;;;;;7.93;5.80;;;;;;;24.54;47.23;101220.34;4974059;28;123596;-76
2023/06/26 03:40:16;;;;;;;10.35;5.05;;;;;;;24.52;47.32;101227.78;4974245;28;123505;-76
2023/06/26 03:42:44;;;;;;;8.00;4.97;;;;;;;24.50;47.31;101229.75;4958210;28;120335;-76
2023/06/26 03:45:11;;;;;;;7.00;4.88;;;;;;;24.45;47.56;101232.09;4992515;28;120429;-76
2023/06/26 03:47:39;;;;;;;10.88;5.05;;;;;;;24.42;47.82;101226.97;4974769;28;123444;-76
2023/06/26 03:50:07;;;;;;;9.32;4.88;;;;;;;24.38;47.57;101225.56;4974368;28;123610;-76
2023/06/26 03:52:34;;;;;;;9.38;4.57;;;;;;;24.35;47.64;101225.84;4974376;28;118985;-76
2023/06/26 03:55:02;;;;;;;8.05;4.75;;;;;;;24.34;48.06;101224.16;4958727;28;118307;-76
2023/06/26 03:57:29;;;;;;;10.05;4.03;;;;;;;24.33;48.26;101222.44;4973865;28;123226;-76
2023/06/26 03:59:57;;;;;;;8.35;4.40;;;;;;;24.32;48.15;101226.13;4974710;28;123409;-76
2023/06/26 04:02:24;;;;;;;9.80;4.28;;;;;;;24.31;48.13;101224.44;4974747;28;119024;-76
2023/06/26 04:04:52;;;;;;;10.15;4.43;;;;;;;24.31;48.50;101229.88;4974475;28;120351;-76
2023/06/26 04:07:20;;;;;;;9.60;4.75;;;;;;;24.28;48.50;101228.31;4973763;28;124312;-76
2023/06/26 04:09:47;;;;;;;7.80;4.88;;;;;;;24.25;48.33;101232.16;4985433;28;123258;-76
2023/06/26 04:12:14;;;;;;;7.10;5.13;;;;;;;24.22;48.45;101237.88;4975044;28;118598;-76
2023/06/26 04:14:41;;;;;;;8.75;5.40;;;;;;;24.20;48.44;101245.28;4989431;28;119089;-76
2023/06/26 04:17:11;;;;;;;9.63;5.63;;;;;;;24.17;48.68;101240.19;4973910;28;123289;-76
2023/06/26 04:19:44;;;;;;;9.93;6.20;;;;;;;24.13;48.65;101254.13;4993662;28;123988;-76
2023/06/26 04:22:15;;;;;;;9.95;5.60;;;;;;;24.08;48.54;101260.00;4992327;28;117941;-76
2023/06/26 04:24:43;;;;;;;8.55;5.50;;;;;;;24.03;48.63;101265.00;4989994;28;118698;-76
2023/06/26 04:27:10;;;;;;;9.60;5.70;;;;;;;23.98;48.85;101261.88;4991701;28;123960;-76
2023/06/26 04:29:37;;;;;;;11.20;6.10;;;;;;;23.93;48.84;101265.03;4982743;28;124161;-76
2023/06/26 04:32:05;;;;;;;8.23;5.63;;;;;;;23.86;49.04;101270.16;4988429;28;120535;-76
2023/06/26 04:34:33;;;;;;;10.63;5.50;;;;;;;23.83;49.13;101278.56;4971738;28;119706;-76
2023/06/26 04:37:03;;;;;;;14.00;5.50;;;;;;;23.80;49.15;101281.56;4989437;28;123823;-76
2023/06/26 04:39:30;;;;;;;9.27;5.20;;;;;;;23.77;49.07;101286.38;4971803;28;123095;-76
2023/06/26 04:41:58;;;;;;;8.75;5.55;;;;;;;23.73;49.26;101275.00;4991728;28;119012;-76
2023/06/26 04:44:25;;;;;;;8.57;5.38;;;;;;;23.69;49.30;101278.97;4974403;28;116943;-76
2023/06/26 04:46:52;;;;;;;7.75;5.40;;;;;;;23.67;49.56;101286.38;5012015;28;123659;-76
2023/06/26 04:49:19;;;;;;;10.52;5.35;;;;;;;23.67;49.50;101286.38;5005956;28;124416;-76
2023/06/26 04:51:48;;;;;;;9.32;4.95;;;;;;;23.69;49.84;101289.81;4977137;28;117147;-76
2023/06/26 04:54:15;;;;;;;9.88;4.80;;;;;;;23.69;49.91;101295.22;4954979;28;118122;-76
2023/06/26 04:56:43;;;;;;;10.98;5.15;;;;;;;23.69;50.02;101300.63;4955175;28;122963;-77
2023/06/26 04:59:13;;;;;;;9.38;5.07;;;;;;;23.69;50.09;101301.47;4970171;28;124107;-76
2023/06/26 05:01:40;;;;;;;11.43;5.47;;;;;;;23.72;50.14;101305.75;4954444;28;118477;-76
2023/06/26 05:04:08;;;;;;;9.35;5.32;;;;;;;23.74;50.21;101305.63;4970840;28;119615;-77
2023/06/26 05:06:35;;;;;;;10.77;5.00;;;;;;;23.78;50.35;101305.16;4988305;28;124671;-76
2023/06/26 05:09:02;;;;;;;9.00;4.85;;;;;;;23.82;50.55;101303.91;4970000;28;123025;-76
2023/06/26 05:11:29;;;;;;;9.95;5.13;;;;;;;23.88;50.53;101305.19;4970211;28;120009;-76
2023/06/26 05:13:56;;;;;;;9.38;5.32;;;;;;;23.93;50.64;101300.19;4988516;28;118668;-76
2023/06/26 05:16:23;;;;;;;12.05;5.75;;;;;;;23.97;50.69;101308.88;4970467;28;124134;-76
2023/06/26 05:18:50;;;;;;;11.32;5.43;;;;;;;24.00;50.75;101308.59;4970402;28;124345;-76
2023/06/26 05:21:18;;;;;;;9.10;5.25;;;;;;;24.03;50.58;101303.72;4988107;28;120363;-76
2023/06/26 05:23:47;;;;;;;12.52;5.30;;;;;;;24.06;50.93;101302.59;4955535;28;119129;-77
2023/06/26 05:26:14;;;;;;;11.98;5.20;;;;;;;24.07;50.95;101298.88;4976870;28;123269;-76
2023/06/26 05:28:44;;;;;;;13.68;5.32;;;;;;;24.11;50.89;101305.72;4994864;28;124022;-76
2023/06/26 05:31:11;;;;;;;10.00;4.82;;;;;;;24.13;50.97;101309.16;4959175;28;118807;-76
2023/06/26 05:33:41;;;;;;;11.60;5.30;;;;;;;24.16;51.05;101324.22;4992034;28;116816;-76
2023/06/26 05:36:09;;;;;;;10.75;5.50;;;;;;;24.18;51.36;101317.66;4976199;28;124466;-77
2023/06/26 05:38:36;;;;;;;12.65;5.35;;;;;;;24.20;50.86;101321.06;4976636;28;123852;-76
2023/06/26 05:41:04;;;;;;;12.75;4.78;;;;;;;24.24;51.02;101327.91;4969712;28;118489;-77
2023/06/26 05:43:31;;;;;;;15.30;5.38;;;;;;;24.29;51.08;101335.59;4988021;28;118817;-77
2023/06/26 05:45:58;;;;;;;10.43;4.70;;;;;;;24.31;50.92;101332.72;4968133;28;123907;-76
2023/06/26 05:48:25;;;;;;;16.30;4.25;;;;;;;24.35;50.78;101344.97;4989812;28;123934;-74
2023/06/26 05:50:53;;;;;;;14.77;4.72;;;;;;;24.38;50.81;101350.09;4969362;28;118131;-75
2023/06/26 05:53:20;;;;;;;17.25;4.50;;;;;;;24.42;50.84;101346.94;4987415;28;119483;-74
2023/06/26 05:55:48;;;;;;;11.35;4.10;;;;;;;24.44;50.76;101355.75;4987540;28;123808;-75
2023/06/26 05:58:17;;;;;;;13.00;4.80;;;;;;;24.46;50.43;101352.91;4988832;28;124200;-74
2023/06/26 06:00:44;;;;;;;14.63;3.78;;;;;;;24.44;50.66;101354.94;5001671;28;118564;-74
2023/06/26 06:03:11;;;;;;;12.88;4.47;;;;;;;24.45;50.46;101362.06;4989702;28;118609;-75
2023/06/26 06:05:38;;;;;;;12.63;3.92;;;;;;;24.45;50.46;101362.06;4984513;28;124139;-75
2023/06/26 06:08:05;;;;;;;9.68;3.92;;;;;;;24.47;50.51;101370.88;4985038;28;124584;-75
2023/06/26 06:10:32;;;;;;;11.45;3.97;;;;;;;24.49;50.38;101374.31;4988050;28;120463;-74
2023/06/26 06:13:00;;;;;;;13.25;3.83;;;;;;;24.51;50.41;101372.28;4988497;28;120118;-74
2023/06/26 06:15:27;;;;;;;11.82;4.65;;;;;;;24.56;50.32;101380.84;4988229;28;123839;-74
2023/06/26 06:17:57;;;;;;;13.93;4.35;;;;;;;24.61;50.48;101381.25;4985430;28;123413;-75
2023/06/26 06:20:24;;;;;;;14.95;4.13;;;;;;;24.66;50.47;101384.38;4987213;28;120076;-74
2023/06/26 06:22:52;;;;;;;11.55;4.07;;;;;;;24.78;50.15;101395.03;4975484;28;118975;-75
2023/06/26 06:25:19;;;;;;;12.63;3.92;;;;;;;24.86;50.26;101392.44;4987718;28;124056;-75
2023/06/26 06:27:46;;;;;;;10.18;4.15;;;;;;;24.93;50.08;101409.81;4988543;28;123654;-75
2023/06/26 06:30:13;;;;;;;12.77;3.95;;;;;;;25.02;49.93;101403.50;4986895;28;120064;-75
2023/06/26 06:32:40;;;;;;;14.02;4.25;;;;;;;25.13;50.05;101409.69;4969930;28;119649;-75
2023/06/26 06:35:10;;;;;;;12.13;3.92;;;;;;;25.23;49.71;101407.84;4986135;28;124195;-74
2023/06/26 06:37:38;;;;;;;10.50;3.90;;;;;;;25.30;49.53;101422.50;4969519;28;124656;-74
2023/06/26 06:40:06;;;;;;;12.20;3.83;;;;;;;25.37;49.49;101423.59;4984139;28;120481;-75
2023/06/26 06:42:34;;;;;;;12.30;4.35;;;;;;;25.43;49.25;101417.56;4987454;28;119286;-75
2023/06/26 06:45:04;;;;;;;14.82;3.78;;;;;;;25.50;48.88;101422.38;4986966;28;123122;-74
2023/06/26 06:47:32;;;;;;;11.05;4.10;;;;;;;25.57;48.84;101418.91;4989928;28;122648;-74
2023/06/26 06:50:07;;;;;;;9.45;3.55;;;;;;;25.67;48.63;101416.09;4974144;28;119488;-74
2023/06/26 06:52:37;;;;;;;13.55;4.28;;;;;;;25.80;48.72;101411.16;4983882;28;119291;-74
2023/06/26 06:55:10;;;;;;;12.65;4.05;;;;;;;25.94;48.55;101414.38;4989212;28;124460;-74
2023/06/26 06:57:39;;;;;;;10.50;3.77;;;;;;;26.07;48.51;101431.13;4969266;28;122660;-75
2023/06/26 07:00:12;;;;;;;11.13;4.03;;;;;;;26.16;48.08;101435.63;4983066;28;121123;-75
2023/06/26 07:02:41;;;;;;;10.05;3.63;;;;;;;26.23;47.92;101436.66;4986561;28;120161;-75
2023/06/26 07:05:10;;;;;;;7.65;3.95;;;;;;;26.30;47.48;101441.50;4968527;28;123807;-75
2023/06/26 07:07:38;;;;;;;6.82;2.92;;;;;;;26.33;46.90;101441.16;4986629;28;124596;-75
2023/06/26 07:10:08;;;;;;;9.13;3.35;;;;;;;26.34;46.95;101449.16;4985887;28;119142;-75
2023/06/26 07:12:36;;;;;;;7.55;3.05;;;;;;;26.36;46.25;101446.28;4986363;28;119141;-75
2023/06/26 07:15:04;;;;;;;6.47;2.80;;;;;;;26.36;46.24;101462.59;4969263;28;124000;-75
2023/06/26 07:17:33;;;;;;;5.65;2.80;;;;;;;26.34;46.05;101456.47;4993382;28;124335;-75
2023/06/26 07:20:04;;;;;;;6.13;3.00;;;;;;;26.29;46.03;101466.94;4986174;28;120078;-75
2023/06/26 07:22:31;;;;;;;5.57;2.70;;;;;;;26.25;46.00;101479.13;4971188;28;117440;-76
2023/06/26 07:24:58;;;;;;;5.30;2.85;;;;;;;26.18;45.65;101477.03;4966949;28;122746;-75
2023/06/26 07:27:25;;;;;;;8.88;2.90;;;;;;;26.17;46.19;101475.31;4986007;28;124059;-75
2023/06/26 07:29:52;;;;;;;5.47;2.65;;;;;;;26.24;45.88;101475.56;4985399;28;119359;-75
2023/06/26 07:32:19;;;;;;;7.28;2.92;;;;;;;26.32;46.05;101472.06;4985609;28;119284;-74
2023/06/26 07:34:46;;;;;;;9.43;3.08;;;;;;;26.43;46.56;101479.97;4989168;28;124258;-75
2023/06/26 07:37:14;;;;;;;7.88;3.40;;;;;;;26.51;45.86;101482.72;4987054;28;123985;-76
2023/06/26 07:39:41;;;;;;;7.03;2.65;;;;;;;26.51;45.61;101488.16;4986161;28;119369;-75
2023/06/26 07:42:08;;;;;;;7.47;3.00;;;;;;;26.45;45.33;101486.09;4984336;28;119990;-75
2023/06/26 07:44:35;;;;;;;6.45;2.80;;;;;;;26.42;45.06;101502.69;4973033;28;124618;-75
2023/06/26 07:47:03;;;;;;;4.82;2.60;;;;;;;26.45;45.39;101494.25;4995860;28;124278;-75
2023/06/26 07:49:30;;;;;;;6.22;3.05;;;;;;;26.51;45.60;101493.59;4984444;28;120641;-75
2023/06/26 07:51:58;;;;;;;7.05;3.10;;;;;;;26.55;45.62;101500.41;4993658;28;123491;-75
2023/06/26 07:54:25;;;;;;;7.10;3.03;;;;;;;26.58;45.53;101505.53;4964247;28;124411;-75
2023/06/26 07:56:54;;;;;;;7.65;3.40;;;;;;;26.65;45.55;101496.78;4988263;28;123878;-75
2023/06/26 07:59:22;;;;;;;6.78;3.20;;;;;;;26.67;45.65;101498.31;4968298;28;118320;-75
2023/06/26 08:01:51;;;;;;;7.28;3.42;;;;;;;26.67;45.17;101508.34;4985570;28;119031;-74
2023/06/26 08:04:20;;;;;;;6.65;3.08;;;;;;;26.57;44.99;101509.25;4968326;28;124554;-75
2023/06/26 08:06:52;;;;;;;7.95;3.40;;;;;;;26.52;45.22;101511.63;4989256;28;123446;-75
2023/06/26 08:09:23;;;;;;;5.70;3.47;;;;;;;26.57;45.37;101513.84;4971260;28;119698;-74
2023/06/26 08:11:50;;;;;;;7.55;3.28;;;;;;;26.67;45.48;101519.22;4989242;28;118712;-75
2023/06/26 08:14:18;;;;;;;7.65;3.40;;;;;;;26.75;45.72;101512.00;4988510;28;123967;-75
2023/06/26 08:16:46;;;;;;;7.07;2.97;;;;;;;26.85;45.61;101514.59;4971023;28;122869;-75
2023/06/26 08:19:15;;;;;;;7.45;3.65;;;;;;;26.93;45.50;101509.19;4988887;28;118637;-75
2023/06/26 08:21:43;;;;;;;10.48;5.93;;;;;;;26.99;44.90;101505.00;4971603;28;118935;-74
2023/06/26 08:24:12;;;;;;;10.85;3.78;;;;;;;27.08;45.49;101511.34;5001795;28;124565;-75
2023/06/26 08:26:40;;;;;;;9.35;3.58;;;;;;;27.21;45.46;101510.91;4988940;28;124375;-75
2023/06/26 08:29:10;;;;;;;5.60;2.90;;;;;;;27.34;45.15;101517.63;4970746;28;118587;-74
2023/06/26 08:31:39;;;;;;;10.68;3.90;;;;;;;27.42;44.73;101507.81;4993807;28;118874;-74
2023/06/26 08:34:07;;;;;;;5.70;3.10;;;;;;;27.38;44.08;101529.88;4992816;28;123271;-75
2023/06/26 08:36:35;;;;;;;12.10;6.28;;;;;;;27.30;44.00;101520.84;4977068;28;123678;-74
2023/06/26 08:39:04;;;;;;;6.43;3.30;;;;;;;27.25;44.41;101529.47;4988018;28;119957;-75
2023/06/26 08:41:32;;;;;;;4.97;2.85;;;;;;;27.29;44.86;101536.28;4970718;28;120618;-74
2023/06/26 08:43:59;;;;;;;8.65;3.33;;;;;;;27.29;44.27;101536.28;4997650;28;124374;-75
2023/06/26 08:46:28;;;;;;;6.50;3.10;;;;;;;27.24;43.74;101538.63;4970956;28;124362;-75
2023/06/26 08:48:56;;;;;;;7.28;3.30;;;;;;;27.18;43.56;101533.81;4967797;28;118165;-74
2023/06/26 08:51:28;;;;;;;14.27;4.78;;;;;;;27.07;43.29;101539.53;4988650;28;118602;-75
2023/06/26 08:54:00;;;;;;;11.48;4.40;;;;;;;27.03;43.20;101540.88;4970355;28;123862;-74
2023/06/26 08:56:32;;;;;;;5.97;2.60;;;;;;;27.04;43.47;101531.72;4996082;28;123576;-74
2023/06/26 08:59:00;;;;;;;3.90;2.08;;;;;;;27.05;43.18;101538.84;4968219;28;119317;-74
2023/06/26 09:01:27;;;;;;;4.85;2.20;;;;;;;27.08;43.11;101549.41;4988312;28;119152;-74
2023/06/26 09:03:55;;;;;;;5.50;2.17;;;;;;;27.10;43.23;101537.34;4964005;28;123690;-74
2023/06/26 09:06:22;;;;;;;4.32;2.00;;;;;;;27.16;42.82;101546.72;4987881;28;123921;-74
2023/06/26 09:08:49;;;;;;;3.55;1.90;;;;;;;27.24;43.04;101549.50;4974472;28;119473;-74
2023/06/26 09:11:16;;;;;;;4.40;1.88;;;;;;;27.33;41.99;101553.16;4975390;28;116806;-75
2023/06/26 09:13:44;;;;;;;2.65;1.50;;;;;;;27.38;41.89;101556.25;4987368;28;124186;-74
2023/06/26 09:16:12;;;;;;;5.38;1.67;;;;;;;27.45;41.45;101567.34;4969405;28;124193;-74
2023/06/26 09:18:45;;;;;;;5.88;1.92;;;;;;;27.50;41.10;101575.84;4987583;28;119314;-74
2023/06/26 09:21:12;;;;;;;5.30;1.85;;;;;;;27.51;41.04;101566.69;4969132;28;118501;-74
2023/06/26 09:23:41;;;;;;;4.18;1.75;;;;;;;27.56;41.06;101575.22;4986924;28;124154;-74
2023/06/26 09:26:08;;;;;;;3.67;1.73;;;;;;;27.63;40.43;101576.25;4969092;28;124159;-74
2023/06/26 09:28:36;;;;;;;2.95;1.30;;;;;;;27.68;40.69;101590.22;4985603;28;120882;-74
2023/06/26 09:31:04;;;;;;;3.30;1.40;;;;;;;27.69;40.04;101597.38;4969463;28;120300;-75
2023/06/26 09:33:38;;;;;;;1.77;1.10;;;;;;;27.69;39.47;101586.50;4953678;28;124632;-74
2023/06/26 09:36:19;;;;;;;2.85;0.98;;;;;;;27.70;39.22;101581.91;4952279;28;123306;-75
2023/06/26 09:38:46;;;;;;;3.00;1.38;;;;;;;27.68;38.84;101584.78;4985955;28;118597;-74
2023/06/26 09:41:17;;;;;;;3.42;1.27;;;;;;;27.61;38.44;101589.16;4990382;28;119005;-73
2023/06/26 09:43:46;;;;;;;3.58;1.23;;;;;;;27.53;38.51;101594.59;4967371;28;124397;-74
2023/06/26 09:46:23;;;;;;;3.38;1.20;;;;;;;27.47;38.69;101592.50;4988134;28;124004;-74
2023/06/26 09:49:07;;;;;;;2.70;0.85;;;;;;;27.46;38.49;101596.25;4981700;28;119810;-74
2023/06/26 09:51:36;;;;;;;2.85;1.13;;;;;;;27.51;39.12;101604.78;4978789;28;117831;-74
2023/06/26 09:54:04;;;;;;;3.58;1.27;;;;;;;27.57;39.36;101606.84;4986542;28;123893;-74
2023/06/26 09:56:33;;;;;;;4.22;1.10;;;;;;;27.68;38.94;101600.28;4969202;28;124801;-74
2023/06/26 09:59:04;;;;;;;4.25;1.00;;;;;;;27.71;38.79;101617.13;4969543;28;119052;-74
2023/06/26 10:01:32;;;;;;;1.88;1.23;;;;;;;27.69;38.60;101624.63;4985633;28;119013;-74
2023/06/26 10:03:59;;;;;;;2.20;1.10;;;;;;;27.64;38.32;101616.06;4984650;28;123280;-74
2023/06/26 10:06:35;;;;;;;3.13;1.10;;;;;;;27.60;37.95;101614.69;4987017;28;124699;-74
2023/06/26 10:09:06;;;;;;;1.90;1.05;;;;;;;27.57;37.42;101615.00;4984392;28;119094;-75
2023/06/26 10:11:56;;;;;;;3.22;1.00;;;;;;;27.52;37.60;101617.34;4989273;28;118816;-74
2023/06/26 10:14:29;;;;;;;2.55;1.10;;;;;;;27.54;37.39;101618.06;4963284;28;124537;-74
2023/06/26 10:16:59;;;;;;;2.55;1.20;;;;;;;27.58;37.91;101619.44;4991672;28;124752;-75
2023/06/26 10:19:28;;;;;;;2.92;1.10;;;;;;;27.63;37.03;101619.78;4986766;28;120061;-74
2023/06/26 10:21:55;;;;;;;2.05;0.90;;;;;;;27.68;37.10;101625.63;4969560;28;120041;-75
2023/06/26 10:24:23;;;;;;;5.20;1.13;;;;;;;27.72;37.44;101624.25;4988810;28;124247;-73
2023/06/26 10:26:59;;;;;;;2.30;1.08;;;;;;;27.75;36.99;101623.09;4986511;28;127215;-72
2023/06/26 10:29:27;;;;;;;2.63;1.20;;;;;;;27.74;37.16;101624.94;4966374;28;118139;-73
2023/06/26 10:31:58;;;;;;;5.88;1.25;;;;;;;27.81;37.16;101635.22;4986022;28;118879;-75
2023/06/26 10:34:27;;;;;;;4.32;1.33;;;;;;;27.80;37.19;101641.66;4983376;28;125640;-74
2023/06/26 10:37:03;;;;;;;2.95;1.30;;;;;;;27.72;36.75;101651.47;4968956;28;122822;-75
2023/06/26 10:39:45;;;;;;;1.92;1.00;;;;;;;27.61;36.37;101640.88;4966769;28;119969;-72
2023/06/26 10:42:13;;;;;;;3.05;1.10;;;;;;;27.55;36.45;101634.22;4968655;28;118881;-75
2023/06/26 10:44:44;;;;;;;4.45;1.17;;;;;;;27.56;36.83;101624.19;4984934;28;124355;-74
2023/06/26 10:47:29;;;;;;;3.15;1.48;;;;;;;27.57;36.93;101636.78;4983601;28;124605;-75
2023/06/26 10:49:57;;;;;;;2.53;1.08;;;;;;;27.56;36.71;101657.72;4976414;28;119970;-75
2023/06/26 10:52:37;;;;;;;3.33;1.20;;;;;;;27.53;36.36;101646.28;4968255;28;118870;-74
2023/06/26 10:55:08;;;;;;;2.45;0.90;;;;;;;27.53;36.25;101651.72;4987143;28;124814;-75
2023/06/26 10:57:36;;;;;;;4.28;1.30;;;;;;;27.55;36.54;101657.84;4965948;28;123894;-75
2023/06/26 11:00:11;;;;;;;1.75;0.80;;;;;;;27.58;35.88;101671.16;4986625;28;119257;-75
2023/06/26 11:02:50;;;;;;;3.90;1.00;;;;;;;27.58;35.65;101668.44;4986967;28;118797;-74
2023/06/26 11:05:28;;;;;;;2.28;1.05;;;;;;;27.58;35.40;101669.28;4995380;28;124802;-74
2023/06/26 11:08:06;;;;;;;3.35;1.10;;;;;;;27.62;35.63;101650.75;4965658;28;123868;-75
2023/06/26 11:11:06;;;;;;;2.08;1.00;;;;;;;27.71;35.72;101655.25;4986234;28;120919;-74
2023/06/26 11:13:34;;;;;;;3.20;0.80;;;;;;;27.83;35.81;101652.22;4924603;28;119989;-74
2023/06/26 11:16:02;;;;;;;4.70;1.10;;;;;;;27.92;34.79;101662.19;4989547;28;124491;-75
2023/06/26 11:18:29;;;;;;;2.30;1.00;;;;;;;27.96;34.69;101663.56;4986456;28;124804;-75
2023/06/26 11:21:05;;;;;;;1.40;0.85;;;;;;;27.99;34.27;101671.41;4986564;28;119190;-74
2023/06/26 11:23:34;;;;;;;4.10;1.00;;;;;;;28.04;34.31;101670.91;4964246;28;119350;-74